createdAt,value
2023-02-01T00:02:04.049Z,100158.13
2023-02-01T00:04:31.741Z,100161.44
2023-02-01T00:06:59.383Z,100152.50
2023-02-01T00:09:27.329Z,100162.88
2023-02-01T00:11:56.195Z,100159.13
2023-02-01T00:14:24.501Z,100156.22
2023-02-01T00:16:52.297Z,100159.63
2023-02-01T00:19:19.955Z,100160.22
2023-02-01T00:21:47.830Z,100153.91
2023-02-01T00:24:15.480Z,100153.78
2023-02-01T00:26:43.526Z,100148.34
2023-02-01T00:29:11.180Z,100145.50
2023-02-01T00:31:38.879Z,100148.91
2023-02-01T00:34:08.173Z,100151.31
2023-02-01T00:36:35.871Z,100151.19
2023-02-01T00:39:03.561Z,100161.69
2023-02-01T00:41:31.265Z,100154.59
2023-02-01T00:43:58.920Z,100143.09
2023-02-01T00:46:26.855Z,100139.50
2023-02-01T00:48:54.561Z,100140.44
2023-02-01T00:51:22.485Z,100127.22
2023-02-01T00:53:50.157Z,100130.03
2023-02-01T00:56:18.112Z,100123.13
2023-02-01T00:58:46.127Z,100126.81
2023-02-01T01:01:13.881Z,100141.91
2023-02-01T01:03:41.484Z,100139.25
2023-02-01T01:06:09.081Z,100128.81
2023-02-01T01:08:36.722Z,100131.34
2023-02-01T01:11:04.530Z,100132.19
2023-02-01T01:13:32.149Z,100126.16
2023-02-01T01:16:02.956Z,100135.88
2023-02-01T01:18:30.986Z,100140.28
2023-02-01T01:20:58.609Z,100138.50
2023-02-01T01:23:26.680Z,100138.50
2023-02-01T01:25:54.254Z,100146.44
2023-02-01T01:28:21.862Z,100139.47
2023-02-01T01:30:49.521Z,100137.75
2023-02-01T01:33:17.112Z,100142.19
2023-02-01T01:35:44.744Z,100144.00
2023-02-01T01:38:12.432Z,100129.03
2023-02-01T01:40:40.777Z,100128.22
2023-02-01T01:43:08.359Z,100125.66
2023-02-01T01:45:35.945Z,100136.22
2023-02-01T01:48:03.893Z,100127.53
2023-02-01T01:50:31.501Z,100136.41
2023-02-01T01:52:59.217Z,100115.28
2023-02-01T01:55:26.857Z,100117.84
2023-02-01T01:57:54.439Z,100130.19
2023-02-01T02:00:22.716Z,100124.16
2023-02-01T02:02:50.815Z,100106.59
2023-02-01T02:05:18.570Z,100105.72
2023-02-01T02:07:46.521Z,100101.31
2023-02-01T02:10:14.073Z,100096.94
2023-02-01T02:12:41.807Z,100097.88
2023-02-01T02:15:09.403Z,100089.94
2023-02-01T02:17:37.313Z,100093.38
2023-02-01T02:20:06.365Z,100089.84
2023-02-01T02:22:34.753Z,100094.28
2023-02-01T02:25:02.479Z,100075.97
2023-02-01T02:27:30.041Z,100075.03
2023-02-01T02:29:57.674Z,100074.88
2023-02-01T02:32:25.630Z,100082.88
2023-02-01T02:34:53.145Z,100082.00
2023-02-01T02:37:20.753Z,100082.00
2023-02-01T02:39:48.291Z,100081.06
2023-02-01T02:42:33.644Z,100082.88
2023-02-01T02:45:18.891Z,100068.78
2023-02-01T02:47:46.642Z,100081.94
2023-02-01T02:50:31.760Z,100082.00
2023-02-01T02:53:17.517Z,100082.00
2023-02-01T02:55:45.086Z,100076.72
2023-02-01T02:58:30.167Z,100074.00
2023-02-01T03:01:15.041Z,100062.56
2023-02-01T03:04:00.524Z,100060.97
2023-02-01T03:06:29.915Z,100047.84
2023-02-01T03:08:57.977Z,100062.09
2023-02-01T03:11:45.535Z,100059.44
2023-02-01T03:14:12.074Z,100054.16
2023-02-01T03:16:40.138Z,100068.25
2023-02-01T03:19:07.771Z,100051.50
2023-02-01T03:21:35.308Z,100051.72
2023-02-01T03:24:03.229Z,100041.28
2023-02-01T03:26:31.373Z,100035.19
2023-02-01T03:28:58.921Z,100032.69
2023-02-01T03:31:26.561Z,100019.84
2023-02-01T03:33:54.147Z,100016.66
2023-02-01T03:36:24.140Z,100014.09
2023-02-01T03:38:51.687Z,100020.25
2023-02-01T03:41:19.298Z,100021.00
2023-02-01T03:43:46.865Z,100006.63
2023-02-01T03:46:14.392Z,100011.84
2023-02-01T03:48:42.325Z,100011.75
2023-02-01T03:51:09.893Z,100014.31
2023-02-01T03:53:37.589Z,100019.59
2023-02-01T03:56:05.157Z,100023.94
2023-02-01T03:58:32.696Z,100026.66
2023-02-01T04:01:00.665Z,100023.28
2023-02-01T04:03:28.279Z,100009.09
2023-02-01T04:05:56.044Z,99998.47
2023-02-01T04:08:23.595Z,99998.47
2023-02-01T04:10:51.603Z,100000.25
2023-02-01T04:13:19.174Z,99989.75
2023-02-01T04:15:47.726Z,99989.09
2023-02-01T04:18:15.822Z,99994.47
2023-02-01T04:20:43.370Z,99996.34
2023-02-01T04:23:11.344Z,100006.06
2023-02-01T04:25:39.001Z,100010.34
2023-02-01T04:28:08.257Z,100011.91
2023-02-01T04:30:35.898Z,100002.00
2023-02-01T04:33:07.452Z,99991.28
2023-02-01T04:35:35.007Z,99997.31
2023-02-01T04:38:02.554Z,99995.41
2023-02-01T04:40:30.552Z,99984.69
2023-02-01T04:42:58.471Z,99983.66
2023-02-01T04:45:26.015Z,99984.47
2023-02-01T04:47:53.616Z,99999.50
2023-02-01T04:50:21.898Z,99988.81
2023-02-01T04:52:50.025Z,99983.53
2023-02-01T04:55:18.129Z,99984.41
2023-02-01T04:57:45.798Z,99989.69
2023-02-01T05:00:14.291Z,99990.50
2023-02-01T05:02:41.905Z,99987.97
2023-02-01T05:05:09.875Z,99981.75
2023-02-01T05:07:37.432Z,99987.03
2023-02-01T05:10:05.082Z,99987.03
2023-02-01T05:12:50.048Z,99995.81
2023-02-01T05:15:18.456Z,100001.00
2023-02-01T05:17:46.095Z,99995.72
2023-02-01T05:20:13.691Z,99998.44
2023-02-01T05:22:41.380Z,100002.91
2023-02-01T05:25:08.977Z,99989.75
2023-02-01T05:27:37.030Z,99997.63
2023-02-01T05:30:04.903Z,100002.91
2023-02-01T05:32:32.611Z,99992.31
2023-02-01T05:35:00.222Z,99988.72
2023-02-01T05:37:28.186Z,99984.41
2023-02-01T05:39:56.151Z,99982.69
2023-02-01T05:42:23.719Z,99994.09
2023-02-01T05:44:51.406Z,100000.25
2023-02-01T05:47:19.042Z,100004.78
2023-02-01T05:49:46.678Z,100002.22
2023-02-01T05:52:14.727Z,99996.09
2023-02-01T05:54:42.484Z,99987.31
2023-02-01T05:57:10.163Z,100002.22
2023-02-01T05:59:42.554Z,100000.41
2023-02-01T06:02:11.182Z,99974.00
2023-02-01T06:04:38.793Z,99984.69
2023-02-01T06:07:06.941Z,99972.56
2023-02-01T06:09:34.560Z,99972.84
2023-02-01T06:12:02.877Z,99974.66
2023-02-01T06:14:30.488Z,99948.31
2023-02-01T06:16:58.063Z,99972.13
2023-02-01T06:19:25.960Z,99992.31
2023-02-01T06:21:53.739Z,99986.94
2023-02-01T06:24:21.747Z,99981.53
2023-02-01T06:26:49.429Z,99984.09
2023-02-01T06:29:17.237Z,99982.31
2023-02-01T06:31:45.110Z,99988.44
2023-02-01T06:34:12.751Z,99986.75
2023-02-01T06:36:41.567Z,99984.00
2023-02-01T06:39:09.181Z,99996.28
2023-02-01T06:41:37.147Z,99990.06
2023-02-01T06:44:04.864Z,99978.66
2023-02-01T06:46:32.482Z,99984.75
2023-02-01T06:49:00.488Z,99994.38
2023-02-01T06:51:28.285Z,99990.91
2023-02-01T06:53:55.884Z,99982.13
2023-02-01T06:56:23.646Z,99985.72
2023-02-01T06:58:51.509Z,99999.66
2023-02-01T07:01:19.475Z,99997.97
2023-02-01T07:03:47.529Z,99989.09
2023-02-01T07:06:15.317Z,99993.44
2023-02-01T07:08:43.161Z,99988.06
2023-02-01T07:11:10.863Z,99997.69
2023-02-01T07:13:38.900Z,100002.03
2023-02-01T07:16:06.656Z,100012.44
2023-02-01T07:18:34.350Z,100020.38
2023-02-01T07:21:02.154Z,100017.72
2023-02-01T07:23:29.838Z,100030.00
2023-02-01T07:25:57.935Z,100034.44
2023-02-01T07:28:25.748Z,100032.72
2023-02-01T07:30:53.600Z,100041.41
2023-02-01T07:33:21.635Z,100030.00
2023-02-01T07:35:49.321Z,100044.06
2023-02-01T07:38:17.394Z,100046.69
2023-02-01T07:40:45.151Z,100041.41
2023-02-01T07:43:12.944Z,100037.84
2023-02-01T07:45:40.862Z,100053.72
2023-02-01T07:48:08.957Z,100049.25
2023-02-01T07:50:36.777Z,100045.66
2023-02-01T07:53:04.537Z,100050.88
2023-02-01T07:55:32.293Z,100039.34
2023-02-01T07:58:00.710Z,100047.19
2023-02-01T08:00:46.340Z,100064.75
2023-02-01T08:03:16.512Z,100051.44
2023-02-01T08:05:45.128Z,100061.09
2023-02-01T08:08:14.625Z,100055.78
2023-02-01T08:10:42.406Z,100049.56
2023-02-01T08:13:11.182Z,100059.19
2023-02-01T08:15:39.042Z,100061.84
2023-02-01T08:18:06.814Z,100068.81
2023-02-01T08:20:37.166Z,100058.25
2023-02-01T08:23:05.183Z,100062.59
2023-02-01T08:25:33.565Z,100058.16
2023-02-01T08:28:01.275Z,100051.84
2023-02-01T08:30:30.527Z,100065.06
2023-02-01T08:32:58.461Z,100067.59
2023-02-01T08:35:41.358Z,100066.75
2023-02-01T08:38:10.514Z,100074.78
2023-02-01T08:40:38.253Z,100078.28
2023-02-01T08:43:06.038Z,100072.88
2023-02-01T08:45:34.004Z,100064.13
2023-02-01T08:48:01.650Z,100075.53
2023-02-01T08:50:29.965Z,100070.16
2023-02-01T08:52:57.779Z,100078.84
2023-02-01T08:55:25.585Z,100075.25
2023-02-01T08:57:53.224Z,100073.38
2023-02-01T09:00:21.422Z,100081.97
2023-02-01T09:02:49.547Z,100086.31
2023-02-01T09:05:20.192Z,100078.09
2023-02-01T09:07:48.225Z,100065.47
2023-02-01T09:10:18.922Z,100062.59
2023-02-01T09:12:49.115Z,100073.00
2023-02-01T09:15:16.887Z,100064.13
2023-02-01T09:17:44.685Z,100064.13
2023-02-01T09:20:12.572Z,100066.00
2023-02-01T09:22:40.309Z,100059.00
2023-02-01T09:25:08.115Z,100061.50
2023-02-01T09:27:36.527Z,100062.13
2023-02-01T09:30:04.330Z,100061.19
2023-02-01T09:32:32.657Z,100054.97
2023-02-01T09:35:00.941Z,100046.00
2023-02-01T09:37:28.710Z,100058.25
2023-02-01T09:39:56.802Z,100051.94
2023-02-01T09:42:24.586Z,100057.09
2023-02-01T09:44:52.917Z,100047.31
2023-02-01T09:47:20.624Z,100038.28
2023-02-01T09:49:48.747Z,100054.00
2023-02-01T09:52:16.807Z,100044.91
2023-02-01T09:54:44.547Z,100053.50
2023-02-01T09:57:14.195Z,100045.47
2023-02-01T09:59:41.935Z,100046.22
2023-02-01T10:02:09.809Z,100058.50
2023-02-01T10:04:37.569Z,100047.91
2023-02-01T10:07:05.342Z,100051.44
2023-02-01T10:09:33.875Z,100058.50
2023-02-01T10:12:01.809Z,100039.16
2023-02-01T10:14:29.487Z,100048.78
2023-02-01T10:16:57.733Z,100056.50
2023-02-01T10:19:25.992Z,100052.81
2023-02-01T10:21:53.979Z,100051.13
2023-02-01T10:24:21.822Z,100046.69
2023-02-01T10:26:49.980Z,100045.84
2023-02-01T10:29:18.268Z,100045.84
2023-02-01T10:31:46.107Z,100039.81
2023-02-01T10:34:14.671Z,100034.69
2023-02-01T10:36:42.685Z,100038.19
2023-02-01T10:39:11.061Z,100033.84
2023-02-01T10:41:40.894Z,100040.94
2023-02-01T10:44:08.791Z,100040.09
2023-02-01T10:46:36.876Z,100036.50
2023-02-01T10:49:05.051Z,100038.75
2023-02-01T10:51:32.819Z,100037.50
2023-02-01T10:54:01.021Z,100027.75
2023-02-01T10:56:29.030Z,100035.81
2023-02-01T10:58:56.751Z,100038.47
2023-02-01T11:01:24.646Z,100035.91
2023-02-01T11:03:52.954Z,100028.06
2023-02-01T11:06:21.183Z,100033.56
2023-02-01T11:08:48.971Z,100022.22
2023-02-01T11:11:19.277Z,100030.25
2023-02-01T11:13:47.299Z,100037.53
2023-02-01T11:16:15.381Z,100025.25
2023-02-01T11:18:43.760Z,100026.19
2023-02-01T11:21:11.893Z,100037.63
2023-02-01T11:23:40.071Z,100025.34
2023-02-01T11:26:08.351Z,100027.91
2023-02-01T11:28:36.184Z,100026.09
2023-02-01T11:31:04.498Z,100012.69
2023-02-01T11:33:32.462Z,100011.72
2023-02-01T11:36:00.834Z,100013.41
2023-02-01T11:38:28.663Z,100001.13
2023-02-01T11:40:56.761Z,100001.13
2023-02-01T11:43:25.464Z,99986.84
2023-02-01T11:45:53.353Z,99988.47
2023-02-01T11:48:26.854Z,99982.09
2023-02-01T11:50:55.268Z,99980.97
2023-02-01T11:53:23.295Z,99967.63
2023-02-01T11:55:51.577Z,99949.84
2023-02-01T11:58:19.418Z,99940.72
2023-02-01T12:00:47.610Z,99945.84
2023-02-01T12:03:15.551Z,99933.34
2023-02-01T12:05:43.847Z,99928.69
2023-02-01T12:08:12.455Z,99937.28
2023-02-01T12:10:40.989Z,99930.28
2023-02-01T12:13:08.890Z,99941.06
2023-02-01T12:15:36.780Z,99923.69
2023-02-01T12:18:04.784Z,99928.09
2023-02-01T12:20:33.984Z,99929.72
2023-02-01T12:23:01.927Z,99931.47
2023-02-01T12:25:30.208Z,99928.22
2023-02-01T12:27:58.065Z,99943.13
2023-02-01T12:30:26.401Z,99926.97
2023-02-01T12:32:54.861Z,99929.34
2023-02-01T12:35:22.618Z,99941.22
2023-02-01T12:37:56.160Z,99926.59
2023-02-01T12:40:24.392Z,99935.69
2023-02-01T12:42:52.398Z,99927.84
2023-02-01T12:45:20.895Z,99905.66
2023-02-01T12:47:48.732Z,99913.03
2023-02-01T12:50:17.631Z,99904.34
2023-02-01T12:52:45.634Z,99909.78
2023-02-01T12:55:13.487Z,99901.28
2023-02-01T12:57:41.456Z,99902.59
2023-02-01T13:00:11.085Z,99897.50
2023-02-01T13:02:40.170Z,99882.16
2023-02-01T13:05:08.186Z,99887.06
2023-02-01T13:07:36.195Z,99895.72
2023-02-01T13:10:04.959Z,99894.69
2023-02-01T13:12:32.848Z,99871.75
2023-02-01T13:15:01.731Z,99877.13
2023-02-01T13:17:29.447Z,99876.69
2023-02-01T13:19:57.296Z,99880.47
2023-02-01T13:22:27.315Z,99900.88
2023-02-01T13:24:55.187Z,99885.59
2023-02-01T13:27:23.408Z,99905.63
2023-02-01T13:29:51.493Z,99896.56
2023-02-01T13:32:19.676Z,99896.00
2023-02-01T13:34:47.985Z,99893.78
2023-02-01T13:37:16.389Z,99878.94
2023-02-01T13:39:44.711Z,99896.78
2023-02-01T13:42:12.607Z,99902.16
2023-02-01T13:44:40.762Z,99892.53
2023-02-01T13:47:09.173Z,99894.31
2023-02-01T13:49:37.157Z,99903.19
2023-02-01T13:52:05.160Z,99889.03
2023-02-01T13:54:33.054Z,99888.13
2023-02-01T13:57:01.574Z,99890.66
2023-02-01T13:59:30.399Z,99881.59
2023-02-01T14:01:58.313Z,99898.00
2023-02-01T14:04:26.331Z,99892.31
2023-02-01T14:06:54.439Z,99897.91
2023-02-01T14:09:22.381Z,99900.06
2023-02-01T14:11:50.601Z,99890.88
2023-02-01T14:14:18.519Z,99897.56
2023-02-01T14:16:46.726Z,99893.78
2023-02-01T14:19:14.629Z,99898.69
2023-02-01T14:21:42.647Z,99892.34
2023-02-01T14:24:11.130Z,99898.28
2023-02-01T14:26:39.098Z,99886.00
2023-02-01T14:29:10.459Z,99903.59
2023-02-01T14:31:40.760Z,99891.69
2023-02-01T14:34:09.031Z,99903.72
2023-02-01T14:36:39.817Z,99898.69
2023-02-01T14:39:10.189Z,99904.13
2023-02-01T14:41:38.473Z,99905.81
2023-02-01T14:44:06.666Z,99918.09
2023-02-01T14:46:38.227Z,99904.13
2023-02-01T14:49:05.974Z,99908.75
2023-02-01T14:51:33.945Z,99916.97
2023-02-01T14:54:01.976Z,99906.78
2023-02-01T14:56:29.827Z,99919.25
2023-02-01T14:58:58.965Z,99910.53
2023-02-01T15:01:26.951Z,99907.91
2023-02-01T15:03:56.955Z,99915.84
2023-02-01T15:06:24.857Z,99924.53
2023-02-01T15:08:52.857Z,99919.25
2023-02-01T15:11:21.069Z,99931.53
2023-02-01T15:13:48.980Z,99917.16
2023-02-01T15:16:16.929Z,99926.41
2023-02-01T15:18:44.777Z,99925.06
2023-02-01T15:21:29.407Z,99921.09
2023-02-01T15:23:59.606Z,99922.41
2023-02-01T15:26:28.051Z,99927.31
2023-02-01T15:28:55.997Z,99940.88
2023-02-01T15:31:24.045Z,99932.56
2023-02-01T15:33:52.254Z,99923.28
2023-02-01T15:36:22.173Z,99937.03
2023-02-01T15:38:50.817Z,99976.88
2023-02-01T15:41:18.817Z,99948.75
2023-02-01T15:43:46.669Z,99942.59
2023-02-01T15:46:14.937Z,99956.44
2023-02-01T15:48:42.908Z,99954.25
2023-02-01T15:51:10.985Z,99957.19
2023-02-01T15:53:39.044Z,99938.88
2023-02-01T15:56:06.942Z,99939.81
2023-02-01T15:58:35.741Z,99938.00
2023-02-01T16:01:06.469Z,99932.63
2023-02-01T16:03:34.831Z,99928.97
2023-02-01T16:06:02.728Z,99925.94
2023-02-01T16:08:31.184Z,99931.66
2023-02-01T16:10:58.982Z,99930.41
2023-02-01T16:13:27.085Z,99920.31
2023-02-01T16:15:55.528Z,99928.69
2023-02-01T16:18:23.508Z,99930.00
2023-02-01T16:20:51.402Z,99937.28
2023-02-01T16:23:21.412Z,99941.47
2023-02-01T16:25:49.857Z,99944.59
2023-02-01T16:28:17.977Z,99945.94
2023-02-01T16:30:46.573Z,99941.78
2023-02-01T16:33:16.207Z,99947.25
2023-02-01T16:35:44.264Z,99939.25
2023-02-01T16:38:14.451Z,99944.53
2023-02-01T16:40:42.468Z,99946.22
2023-02-01T16:43:10.253Z,99948.78
2023-02-01T16:45:38.442Z,99944.16
2023-02-01T16:48:06.464Z,99939.41
2023-02-01T16:50:34.659Z,99940.72
2023-02-01T16:53:03.208Z,99951.94
2023-02-01T16:55:31.093Z,99945.69
2023-02-01T16:57:58.968Z,99953.19
2023-02-01T17:00:28.928Z,99945.56
2023-02-01T17:02:57.003Z,99953.88
2023-02-01T17:05:25.492Z,99964.81
2023-02-01T17:07:53.836Z,99951.06
2023-02-01T17:10:31.464Z,99965.53
2023-02-01T17:13:01.448Z,99945.56
2023-02-01T17:15:29.900Z,99935.28
2023-02-01T17:17:59.101Z,99920.56
2023-02-01T17:20:27.159Z,99951.53
2023-02-01T17:22:55.055Z,99961.28
2023-02-01T17:25:23.383Z,100028.31
2023-02-01T17:27:52.113Z,100043.31
2023-02-01T17:30:19.981Z,100051.97
2023-02-01T17:32:47.818Z,100010.34
2023-02-01T17:35:17.024Z,100016.25
2023-02-01T17:37:45.216Z,100027.41
2023-02-01T17:40:13.450Z,100031.44
2023-02-01T17:42:41.570Z,100052.00
2023-02-01T17:45:11.092Z,100040.09
2023-02-01T17:47:39.117Z,100047.41
2023-02-01T17:50:07.436Z,100044.19
2023-02-01T17:52:36.537Z,100044.56
2023-02-01T17:55:05.007Z,100037.81
2023-02-01T17:57:33.464Z,100027.50
2023-02-01T18:00:01.404Z,100033.81
2023-02-01T18:02:29.899Z,100034.00
2023-02-01T18:04:59.162Z,100037.66
2023-02-01T18:07:27.037Z,100038.59
2023-02-01T18:09:55.635Z,100036.72
2023-02-01T18:12:23.506Z,100035.63
2023-02-01T18:14:51.800Z,100039.75
2023-02-01T18:17:20.380Z,100045.72
2023-02-01T18:19:48.911Z,100044.56
2023-02-01T18:22:16.889Z,100045.19
2023-02-01T18:24:44.684Z,100038.81
2023-02-01T18:27:13.065Z,100026.22
2023-02-01T18:29:41.513Z,100034.81
2023-02-01T18:32:09.573Z,100053.03
2023-02-01T18:34:37.597Z,100064.25
2023-02-01T18:37:05.574Z,100072.94
2023-02-01T18:39:33.701Z,100078.97
2023-02-01T18:42:03.142Z,100103.78
2023-02-01T18:44:31.064Z,100103.28
2023-02-01T18:47:00.831Z,100098.53
2023-02-01T18:49:28.835Z,100085.84
2023-02-01T18:51:56.750Z,100074.88
2023-02-01T18:54:25.422Z,100074.28
2023-02-01T18:56:53.579Z,100092.94
2023-02-01T18:59:21.445Z,100094.78
2023-02-01T19:01:49.352Z,100064.03
2023-02-01T19:04:25.974Z,100068.50
2023-02-01T19:06:55.237Z,100063.28
2023-02-01T19:09:23.179Z,100052.88
2023-02-01T19:11:50.962Z,100053.06
2023-02-01T19:14:18.777Z,100062.94
2023-02-01T19:16:46.699Z,100049.81
2023-02-01T19:19:14.497Z,100060.50
2023-02-01T19:21:42.439Z,100075.38
2023-02-01T19:24:10.510Z,100076.22
2023-02-01T19:26:38.816Z,100072.81
2023-02-01T19:29:06.647Z,100073.94
2023-02-01T19:31:34.737Z,100067.97
2023-02-01T19:34:02.695Z,100063.72
2023-02-01T19:36:30.586Z,100055.03
2023-02-01T19:38:58.709Z,100048.97
2023-02-01T19:41:26.532Z,100049.09
2023-02-01T19:43:54.661Z,100052.56
2023-02-01T19:46:23.041Z,100038.53
2023-02-01T19:48:50.860Z,100027.97
2023-02-01T19:51:19.683Z,100029.56
2023-02-01T19:53:47.643Z,100059.13
2023-02-01T19:56:15.701Z,100072.88
2023-02-01T19:58:44.107Z,100058.69
2023-02-01T20:01:12.044Z,100068.06
2023-02-01T20:03:40.340Z,100088.13
2023-02-01T20:06:08.752Z,100082.59
2023-02-01T20:08:37.840Z,100073.50
2023-02-01T20:11:05.725Z,100082.94
2023-02-01T20:13:34.937Z,100085.44
2023-02-01T20:16:03.401Z,100086.19
2023-02-01T20:18:31.485Z,100087.88
2023-02-01T20:20:59.541Z,100086.19
2023-02-01T20:23:27.619Z,100078.41
2023-02-01T20:25:57.491Z,100067.88
2023-02-01T20:28:25.653Z,100068.91
2023-02-01T20:30:54.254Z,100064.66
2023-02-01T20:33:22.459Z,100074.44
2023-02-01T20:35:50.357Z,100074.53
2023-02-01T20:38:18.405Z,100077.25
2023-02-01T20:40:46.517Z,100076.31
2023-02-01T20:43:14.288Z,100071.97
2023-02-01T20:45:42.650Z,100077.09
2023-02-01T20:48:10.532Z,100077.94
2023-02-01T20:50:38.531Z,100079.47
2023-02-01T20:53:06.927Z,100078.41
2023-02-01T20:55:34.755Z,100081.75
2023-02-01T20:58:02.959Z,100091.22
2023-02-01T21:00:31.605Z,100098.88
2023-02-01T21:02:59.600Z,100090.00
2023-02-01T21:05:40.245Z,100090.88
2023-02-01T21:08:09.075Z,100098.88
2023-02-01T21:10:37.063Z,100108.69
2023-02-01T21:13:05.635Z,100118.47
2023-02-01T21:15:35.136Z,100115.84
2023-02-01T21:18:03.737Z,100116.75
2023-02-01T21:20:31.947Z,100118.56
2023-02-01T21:22:59.673Z,100113.34
2023-02-01T21:25:27.646Z,100093.16
2023-02-01T21:27:55.619Z,100106.38
2023-02-01T21:30:24.151Z,100098.44
2023-02-01T21:32:52.117Z,100101.94
2023-02-01T21:35:20.463Z,100110.72
2023-02-01T21:37:48.466Z,100109.75
2023-02-01T21:40:16.327Z,100115.91
2023-02-01T21:42:46.515Z,100141.38
2023-02-01T21:45:14.777Z,100149.28
2023-02-01T21:47:42.690Z,100137.88
2023-02-01T21:50:10.704Z,100142.25
2023-02-01T21:52:39.893Z,100145.78
2023-02-01T21:55:08.129Z,100145.97
2023-02-01T21:57:36.961Z,100131.22
2023-02-01T22:00:05.735Z,100142.13
2023-02-01T22:02:33.600Z,100135.38
2023-02-01T22:05:01.668Z,100127.72
2023-02-01T22:07:30.588Z,100125.34
2023-02-01T22:10:00.000Z,100127.28
2023-02-01T22:12:28.026Z,100137.00
2023-02-01T22:14:55.861Z,100146.69
2023-02-01T22:17:23.691Z,100150.28
2023-02-01T22:19:52.489Z,100160.84
2023-02-01T22:22:20.707Z,100154.69
2023-02-01T22:24:48.454Z,100176.84
2023-02-01T22:27:16.982Z,100189.16
2023-02-01T22:29:44.866Z,100185.78
2023-02-01T22:32:14.463Z,100178.88
2023-02-01T22:34:42.903Z,100179.03
2023-02-01T22:37:11.844Z,100181.75
2023-02-01T22:39:40.087Z,100191.44
2023-02-01T22:42:08.245Z,100186.16
2023-02-01T22:44:36.311Z,100191.44
2023-02-01T22:47:04.549Z,100189.72
2023-02-01T22:49:32.497Z,100185.31
2023-02-01T22:52:00.550Z,100173.91
2023-02-01T22:54:28.257Z,100177.47
2023-02-01T22:56:56.351Z,100182.69
2023-02-01T22:59:24.253Z,100179.94
2023-02-01T23:01:52.054Z,100181.69
2023-02-01T23:04:21.621Z,100185.06
2023-02-01T23:06:50.852Z,100179.81
2023-02-01T23:09:19.007Z,100186.72
2023-02-01T23:11:47.061Z,100196.22
2023-02-01T23:14:14.821Z,100194.38
2023-02-01T23:16:42.768Z,100206.56
2023-02-01T23:19:10.515Z,100217.88
2023-02-01T23:21:38.918Z,100214.22
2023-02-01T23:24:08.403Z,100215.94
2023-02-01T23:26:36.591Z,100213.28
2023-02-01T23:29:04.345Z,100214.06
2023-02-01T23:31:32.117Z,100213.22
2023-02-01T23:34:00.563Z,100210.47
2023-02-01T23:36:28.285Z,100198.16
2023-02-01T23:38:55.950Z,100219.09
2023-02-01T23:41:23.616Z,100219.09
2023-02-01T23:44:01.286Z,100222.47
2023-02-01T23:46:29.099Z,100216.19
2023-02-01T23:48:56.784Z,100216.13
2023-02-01T23:51:24.487Z,100214.34
2023-02-01T23:53:52.165Z,100217.66
2023-02-01T23:56:20.307Z,100220.22
2023-02-01T23:58:48.162Z,100214.84
